createdAt,value
2016-12-29T00:00:21.156Z,0
2016-12-29T00:01:19.959Z,0
2016-12-29T00:02:20.693Z,0
2016-12-29T00:03:21.036Z,0
2016-12-29T00:04:21.407Z,0
2016-12-29T00:05:20.943Z,0
2016-12-29T00:06:21.286Z,0
2016-12-29T00:07:20.863Z,0
2016-12-29T00:08:21.199Z,0
2016-12-29T00:09:19.617Z,0
2016-12-29T00:10:20.738Z,0
2016-12-29T00:11:20.304Z,0
2016-12-29T00:12:20.641Z,0
2016-12-29T00:13:20.595Z,0
2016-12-29T00:14:20.947Z,0
2016-12-29T00:15:20.512Z,0
2016-12-29T00:16:20.859Z,0
2016-12-29T00:17:20.426Z,0
2016-12-29T00:18:19.618Z,0
2016-12-29T00:19:20.729Z,0
2016-12-29T00:20:20.295Z,0
2016-12-29T00:21:20.304Z,0
2016-12-29T00:22:20.610Z,0
2016-12-29T00:23:20.170Z,0
2016-12-29T00:24:20.513Z,0
2016-12-29T00:25:20.470Z,0
2016-12-29T00:26:20.458Z,0
2016-12-29T00:27:20.391Z,0
2016-12-29T00:28:19.186Z,0
2016-12-29T00:29:20.296Z,0
2016-12-29T00:30:19.871Z,0
2016-12-29T00:31:19.826Z,0
2016-12-29T00:32:19.792Z,0
2016-12-29T00:33:20.128Z,0
2016-12-29T00:34:19.308Z,0
2016-12-29T00:35:19.264Z,0
2016-12-29T00:36:19.612Z,0
2016-12-29T00:37:19.565Z,0
2016-12-29T00:38:19.524Z,0
2016-12-29T00:39:19.871Z,0
2016-12-29T00:40:19.826Z,0
2016-12-29T00:41:19.008Z,0
2016-12-29T00:42:19.345Z,0
2016-12-29T00:43:19.317Z,0
2016-12-29T00:44:18.876Z,0
2016-12-29T00:45:18.843Z,0
2016-12-29T00:46:19.564Z,0
2016-12-29T00:47:19.132Z,0
2016-12-29T00:48:19.469Z,0
2016-12-29T00:49:19.437Z,0
2016-12-29T00:50:19.391Z,0
2016-12-29T00:51:18.961Z,0
2016-12-29T00:52:18.532Z,0
2016-12-29T00:53:19.255Z,0
2016-12-29T00:54:18.446Z,0
2016-12-29T00:55:18.787Z,0
2016-12-29T00:56:18.767Z,0
2016-12-29T00:57:18.309Z,0
2016-12-29T00:58:18.266Z,0
2016-12-29T00:59:18.609Z,0
2016-12-29T01:00:18.565Z,0
2016-12-29T01:01:18.143Z,0
2016-12-29T01:02:18.487Z,0
2016-12-29T01:03:18.818Z,0
2016-12-29T01:04:18.007Z,0
2016-12-29T01:05:18.743Z,0
2016-12-29T01:06:17.926Z,0
2016-12-29T01:07:18.661Z,0
2016-12-29T01:08:18.607Z,0
2016-12-29T01:09:18.182Z,0
2016-12-29T01:10:18.130Z,0
2016-12-29T01:11:18.493Z,0
2016-12-29T01:12:18.433Z,0
2016-12-29T01:13:17.999Z,0
2016-12-29T01:14:17.959Z,0
2016-12-29T01:15:17.527Z,0
2016-12-29T01:16:17.519Z,0
2016-12-29T01:17:17.825Z,0
2016-12-29T01:18:18.172Z,0
2016-12-29T01:19:18.130Z,0
2016-12-29T01:20:17.309Z,0
2016-12-29T01:21:18.036Z,0
2016-12-29T01:22:17.619Z,0
2016-12-29T01:23:17.569Z,0
2016-12-29T01:24:17.907Z,0
2016-12-29T01:25:17.094Z,0
2016-12-29T01:26:17.829Z,0
2016-12-29T01:27:16.617Z,0
2016-12-29T01:28:17.734Z,0
2016-12-29T01:29:16.915Z,0
2016-12-29T01:30:17.648Z,0
2016-12-29T01:31:17.603Z,0
2016-12-29T01:32:17.176Z,0
2016-12-29T01:33:17.130Z,0
2016-12-29T01:34:17.483Z,0
2016-12-29T01:35:16.657Z,0
2016-12-29T01:36:16.994Z,0
2016-12-29T01:37:16.956Z,0
2016-12-29T01:38:16.918Z,0
2016-12-29T01:39:15.711Z,0
2016-12-29T01:40:16.819Z,0
2016-12-29T01:41:16.399Z,0
2016-12-29T01:42:17.122Z,0
2016-12-29T01:43:16.693Z,0
2016-12-29T01:44:16.266Z,0
2016-12-29T01:45:16.603Z,0
2016-12-29T01:46:16.947Z,0
2016-12-29T01:47:16.906Z,0
2016-12-29T01:48:16.856Z,0
2016-12-29T01:49:16.431Z,0
2016-12-29T01:50:16.000Z,0
2016-12-29T01:51:16.760Z,0
2016-12-29T01:52:15.927Z,0
2016-12-29T01:53:16.635Z,0
2016-12-29T01:54:16.210Z,0
2016-12-29T01:55:15.779Z,0
2016-12-29T01:56:16.125Z,0
2016-12-29T01:57:15.713Z,0
2016-12-29T01:58:15.654Z,0
2016-12-29T01:59:15.605Z,0
2016-12-29T02:00:16.342Z,0
2016-12-29T02:01:16.288Z,0
2016-12-29T02:02:16.251Z,0
2016-12-29T02:03:15.819Z,0
2016-12-29T02:04:15.773Z,0
2016-12-29T02:05:16.148Z,0
2016-12-29T02:06:15.727Z,0
2016-12-29T02:07:15.651Z,0
2016-12-29T02:08:15.990Z,0
2016-12-29T02:09:14.799Z,0
2016-12-29T02:10:15.513Z,0
2016-12-29T02:11:14.696Z,0
2016-12-29T02:12:15.810Z,0
2016-12-29T02:13:15.765Z,0
2016-12-29T02:14:14.560Z,0
2016-12-29T02:15:14.947Z,0
2016-12-29T02:16:15.632Z,0
2016-12-29T02:17:15.592Z,0
2016-12-29T02:18:15.166Z,0
2016-12-29T02:19:15.127Z,0
2016-12-29T02:20:14.688Z,0
2016-12-29T02:21:14.645Z,0
2016-12-29T02:22:15.377Z,0
2016-12-29T02:23:15.333Z,0
2016-12-29T02:24:14.897Z,0
2016-12-29T02:25:15.239Z,0
2016-12-29T02:26:15.200Z,0
2016-12-29T02:27:15.155Z,0
2016-12-29T02:28:14.726Z,0
2016-12-29T02:29:14.295Z,0
2016-12-29T02:30:15.028Z,0
2016-12-29T02:31:14.978Z,0
2016-12-29T02:32:14.556Z,0
2016-12-29T02:33:14.525Z,0
2016-12-29T02:34:14.459Z,0
2016-12-29T02:35:14.029Z,0
2016-12-29T02:36:14.765Z,0
2016-12-29T02:37:13.951Z,0
2016-12-29T02:38:14.283Z,0
2016-12-29T02:39:14.624Z,0
2016-12-29T02:40:13.811Z,0
2016-12-29T02:41:14.541Z,0
2016-12-29T02:42:13.728Z,0
2016-12-29T02:43:14.060Z,0
2016-12-29T02:44:14.414Z,0
2016-12-29T02:45:13.597Z,0
2016-12-29T02:46:14.315Z,0
2016-12-29T02:47:13.897Z,0
2016-12-29T02:48:14.242Z,0
2016-12-29T02:49:14.191Z,0
2016-12-29T02:50:14.144Z,0
2016-12-29T02:51:13.718Z,0
2016-12-29T02:52:13.290Z,0
2016-12-29T02:53:13.242Z,0
2016-12-29T02:54:13.195Z,0
2016-12-29T02:55:13.537Z,0
2016-12-29T02:56:13.111Z,0
2016-12-29T02:57:13.453Z,0
2016-12-29T02:58:13.817Z,0
2016-12-29T02:59:13.751Z,0
2016-12-29T03:00:13.706Z,0
2016-12-29T03:01:13.660Z,0
2016-12-29T03:02:13.625Z,0
2016-12-29T03:03:13.193Z,0
2016-12-29T03:04:12.770Z,0
2016-12-29T03:05:13.511Z,0
2016-12-29T03:06:13.058Z,0
2016-12-29T03:07:13.397Z,0
2016-12-29T03:08:13.354Z,0
2016-12-29T03:09:12.934Z,0
2016-12-29T03:10:12.495Z,0
2016-12-29T03:11:12.833Z,0
2016-12-29T03:12:12.794Z,0
2016-12-29T03:13:13.134Z,0
2016-12-29T03:14:12.708Z,0
2016-12-29T03:15:13.049Z,0
2016-12-29T03:16:12.999Z,0
2016-12-29T03:17:12.966Z,0
2016-12-29T03:18:12.921Z,0
2016-12-29T03:19:12.873Z,0
2016-12-29T03:20:12.057Z,0
2016-12-29T03:21:12.785Z,0
2016-12-29T03:22:12.737Z,0
2016-12-29T03:23:12.690Z,0
2016-12-29T03:24:12.266Z,0
2016-12-29T03:25:12.612Z,0
2016-12-29T03:26:12.173Z,0
2016-12-29T03:27:12.145Z,0
2016-12-29T03:28:12.094Z,0
2016-12-29T03:29:12.432Z,0
2016-12-29T03:30:12.002Z,0
2016-12-29T03:31:12.373Z,0
2016-12-29T03:32:12.310Z,0
2016-12-29T03:33:12.254Z,0
2016-12-29T03:34:11.459Z,0
2016-12-29T03:35:11.010Z,0
2016-12-29T03:36:11.369Z,0
2016-12-29T03:37:11.694Z,0
2016-12-29T03:38:12.038Z,0
2016-12-29T03:39:11.224Z,0
2016-12-29T03:40:11.563Z,0
2016-12-29T03:41:11.936Z,0
2016-12-29T03:42:11.472Z,0
2016-12-29T03:43:11.429Z,0
2016-12-29T03:44:11.778Z,0
2016-12-29T03:45:11.727Z,0
2016-12-29T03:46:11.144Z,0
2016-12-29T03:47:10.713Z,0
2016-12-29T03:48:11.056Z,0
2016-12-29T03:49:10.622Z,0
2016-12-29T03:50:10.996Z,0
2016-12-29T03:51:10.927Z,0
2016-12-29T03:52:10.491Z,0
2016-12-29T03:53:10.449Z,0
2016-12-29T03:54:10.794Z,0
2016-12-29T03:55:10.743Z,0
2016-12-29T03:56:10.320Z,0
2016-12-29T03:57:10.659Z,0
2016-12-29T03:58:10.612Z,0
2016-12-29T03:59:10.574Z,0
2016-12-29T04:00:09.755Z,0
2016-12-29T04:01:10.098Z,0
2016-12-29T04:02:10.438Z,0
2016-12-29T04:03:10.392Z,0
2016-12-29T04:04:10.347Z,0
2016-12-29T04:05:10.306Z,0
2016-12-29T04:06:09.875Z,0
2016-12-29T04:07:10.219Z,0
2016-12-29T04:08:10.167Z,0
2016-12-29T04:09:10.134Z,0
2016-12-29T04:10:09.320Z,0
2016-12-29T04:11:09.269Z,0
2016-12-29T04:12:09.999Z,0
2016-12-29T04:13:09.567Z,0
2016-12-29T04:14:09.909Z,0
2016-12-29T04:15:09.096Z,0
2016-12-29T04:16:09.470Z,0
2016-12-29T04:17:09.010Z,0
2016-12-29T04:18:09.341Z,0
2016-12-29T04:19:09.306Z,0
2016-12-29T04:20:09.256Z,0
2016-12-29T04:21:09.599Z,0
2016-12-29T04:22:09.554Z,0
2016-12-29T04:23:09.126Z,0
2016-12-29T04:24:09.473Z,0
2016-12-29T04:25:08.654Z,0
2016-12-29T04:26:08.995Z,0
2016-12-29T04:27:08.595Z,0
2016-12-29T04:28:08.898Z,0
2016-12-29T04:29:08.855Z,0
2016-12-29T04:30:09.205Z,0
2016-12-29T04:31:08.771Z,0
2016-12-29T04:32:09.111Z,0
2016-12-29T04:33:08.684Z,0
2016-12-29T04:34:08.640Z,0
2016-12-29T04:35:08.211Z,0
2016-12-29T04:36:08.933Z,0
2016-12-29T04:37:08.503Z,0
2016-12-29T04:38:08.461Z,0
2016-12-29T04:39:08.797Z,0
2016-12-29T04:40:08.759Z,0
2016-12-29T04:41:08.322Z,0
2016-12-29T04:42:07.907Z,0
2016-12-29T04:43:08.240Z,0
2016-12-29T04:44:08.578Z,0
2016-12-29T04:45:08.534Z,0
2016-12-29T04:46:08.103Z,0
2016-12-29T04:47:08.441Z,0
2016-12-29T04:48:08.405Z,0
2016-12-29T04:49:08.355Z,0
2016-12-29T04:50:08.340Z,0
2016-12-29T04:51:07.883Z,0
2016-12-29T04:52:08.231Z,0
2016-12-29T04:53:08.181Z,0
2016-12-29T04:54:07.366Z,0
2016-12-29T04:55:08.094Z,0
2016-12-29T04:56:07.666Z,0
2016-12-29T04:57:07.616Z,0
2016-12-29T04:58:07.572Z,0
2016-12-29T04:59:07.527Z,0
2016-12-29T05:00:07.874Z,0
2016-12-29T05:01:07.442Z,0
2016-12-29T05:02:07.779Z,0
2016-12-29T05:03:07.735Z,0
2016-12-29T05:04:07.687Z,0
2016-12-29T05:05:07.650Z,0
2016-12-29T05:06:07.218Z,0
2016-12-29T05:07:06.790Z,0
2016-12-29T05:08:07.553Z,0
2016-12-29T05:09:06.704Z,0
2016-12-29T05:10:07.423Z,0
2016-12-29T05:11:06.614Z,0
2016-12-29T05:12:06.960Z,0
2016-12-29T05:13:07.288Z,0
2016-12-29T05:14:07.243Z,0
2016-12-29T05:15:06.816Z,0
2016-12-29T05:16:06.783Z,0
2016-12-29T05:17:06.729Z,0
2016-12-29T05:18:07.069Z,0
2016-12-29T05:19:07.030Z,0
2016-12-29T05:20:06.597Z,0
2016-12-29T05:21:06.548Z,0
2016-12-29T05:22:06.891Z,0
2016-12-29T05:23:06.845Z,0
2016-12-29T05:24:06.801Z,0
2016-12-29T05:25:06.377Z,0
2016-12-29T05:26:06.332Z,0
2016-12-29T05:27:06.674Z,0
2016-12-29T05:28:05.865Z,0
2016-12-29T05:29:06.584Z,0
2016-12-29T05:30:06.153Z,0
2016-12-29T05:31:05.727Z,0
2016-12-29T05:32:05.679Z,0
2016-12-29T05:33:06.019Z,0
2016-12-29T05:34:05.974Z,0
2016-12-29T05:35:06.348Z,0
2016-12-29T05:36:06.279Z,0
2016-12-29T05:37:06.235Z,0
2016-12-29T05:38:06.180Z,0
2016-12-29T05:39:05.751Z,0
2016-12-29T05:40:05.713Z,0
2016-12-29T05:41:05.664Z,0
2016-12-29T05:42:05.228Z,0
2016-12-29T05:43:05.961Z,0
2016-12-29T05:44:05.529Z,0
2016-12-29T05:45:05.486Z,0
2016-12-29T05:46:05.830Z,0
2016-12-29T05:47:05.007Z,0
2016-12-29T05:48:05.740Z,0
2016-12-29T05:49:05.309Z,0
2016-12-29T05:50:05.644Z,0
2016-12-29T05:51:05.215Z,0
2016-12-29T05:52:04.403Z,0
2016-12-29T05:53:04.744Z,0
2016-12-29T05:54:05.467Z,0
2016-12-29T05:55:05.036Z,0
2016-12-29T05:56:04.610Z,0
2016-12-29T05:57:04.179Z,0
2016-12-29T05:58:04.907Z,0
2016-12-29T05:59:05.247Z,0
2016-12-29T06:00:04.843Z,0
2016-12-29T06:01:05.158Z,0
2016-12-29T06:02:04.724Z,0
2016-12-29T06:03:04.678Z,0
2016-12-29T06:04:05.022Z,0
2016-12-29T06:05:04.979Z,0
2016-12-29T06:06:04.551Z,0
2016-12-29T06:07:04.889Z,0
2016-12-29T06:08:04.076Z,0
2016-12-29T06:09:04.422Z,0
2016-12-29T06:10:04.366Z,0
2016-12-29T06:11:04.329Z,0
2016-12-29T06:12:04.667Z,0
2016-12-29T06:13:04.235Z,0
2016-12-29T06:14:04.574Z,0
2016-12-29T06:15:04.537Z,0
2016-12-29T06:16:04.103Z,0
2016-12-29T06:17:04.440Z,0
2016-12-29T06:18:04.017Z,0
2016-12-29T06:19:03.972Z,0
2016-12-29T06:20:04.305Z,0
2016-12-29T06:21:04.270Z,0
2016-12-29T06:22:03.846Z,0
2016-12-29T06:23:04.179Z,0
2016-12-29T06:24:04.129Z,0
2016-12-29T06:25:04.084Z,0
2016-12-29T06:26:04.047Z,0
2016-12-29T06:27:03.605Z,0
2016-12-29T06:28:03.950Z,0
2016-12-29T06:29:03.524Z,0
2016-12-29T06:30:03.480Z,0
2016-12-29T06:31:03.436Z,0
2016-12-29T06:32:03.776Z,0
2016-12-29T06:33:03.729Z,0
2016-12-29T06:34:03.684Z,0
2016-12-29T06:35:03.256Z,0
2016-12-29T06:36:03.220Z,0
2016-12-29T06:37:03.556Z,0
2016-12-29T06:38:02.774Z,0
2016-12-29T06:39:03.075Z,0
2016-12-29T06:40:02.649Z,0
2016-12-29T06:41:02.985Z,0
2016-12-29T06:42:02.563Z,0
2016-12-29T06:43:02.901Z,0
2016-12-29T06:44:02.859Z,0
2016-12-29T06:45:02.812Z,0
2016-12-29T06:46:03.162Z,0
2016-12-29T06:47:02.717Z,0
2016-12-29T06:48:02.675Z,0
2016-12-29T06:49:02.637Z,0
2016-12-29T06:50:02.974Z,0
2016-12-29T06:51:02.930Z,0
2016-12-29T06:52:02.907Z,0
2016-12-29T06:53:02.450Z,0
2016-12-29T06:54:02.409Z,0
2016-12-29T06:55:02.363Z,0
2016-12-29T06:56:02.320Z,0
2016-12-29T06:57:01.886Z,0
2016-12-29T06:58:02.230Z,0
2016-12-29T06:59:02.183Z,0
2016-12-29T07:00:02.526Z,5
2016-12-29T07:01:02.473Z,5
2016-12-29T07:02:02.432Z,5
2016-12-29T07:03:02.003Z,5
2016-12-29T07:04:01.958Z,5
2016-12-29T07:05:02.299Z,5
2016-12-29T07:06:02.253Z,5
2016-12-29T07:07:02.211Z,5
2016-12-29T07:08:01.782Z,10
2016-12-29T07:09:01.368Z,10
2016-12-29T07:10:02.085Z,10
2016-12-29T07:11:02.025Z,10
2016-12-29T07:12:01.221Z,10
2016-12-29T07:13:01.565Z,10
2016-12-29T07:14:01.512Z,15
2016-12-29T07:15:01.467Z,15
2016-12-29T07:16:01.425Z,15
2016-12-29T07:17:01.800Z,15
2016-12-29T07:18:01.718Z,15
2016-12-29T07:19:01.292Z,20
2016-12-29T07:20:01.628Z,20
2016-12-29T07:21:01.211Z,25
2016-12-29T07:22:00.765Z,25
2016-12-29T07:23:02.035Z,40
2016-12-29T07:24:01.605Z,45
2016-12-29T07:25:01.562Z,50
2016-12-29T07:26:01.928Z,55
2016-12-29T07:27:01.464Z,65
2016-12-29T07:28:01.037Z,65
2016-12-29T07:29:01.384Z,75
2016-12-29T07:30:00.989Z,80
2016-12-29T07:31:01.674Z,80
2016-12-29T07:32:01.245Z,90
2016-12-29T07:33:00.818Z,95
2016-12-29T07:34:01.546Z,100
2016-12-29T07:35:01.496Z,105
2016-12-29T07:36:01.067Z,105
2016-12-29T07:37:01.050Z,110
2016-12-29T07:38:00.984Z,120
2016-12-29T07:39:00.938Z,125
2016-12-29T07:40:01.292Z,130
2016-12-29T07:41:00.853Z,145
2016-12-29T07:42:00.810Z,150
2016-12-29T07:43:01.146Z,155
2016-12-29T07:44:00.719Z,165
2016-12-29T07:45:00.297Z,170
2016-12-29T07:46:00.640Z,185
2016-12-29T07:47:00.981Z,195
2016-12-29T07:48:00.931Z,200
2016-12-29T07:49:00.892Z,205
2016-12-29T07:50:00.477Z,220
2016-12-29T07:51:00.944Z,225
2016-12-29T07:52:00.195Z,230
2016-12-29T07:53:00.719Z,240
2016-12-29T07:54:00.285Z,245
2016-12-29T07:55:00.639Z,255
2016-12-29T07:56:00.205Z,265
2016-12-29T07:57:00.168Z,275
2016-12-29T07:58:00.509Z,285
2016-12-29T07:59:00.082Z,290
2016-12-29T08:00:00.427Z,300
2016-12-29T08:01:00.381Z,310
2016-12-29T08:02:00.353Z,320
2016-12-29T08:02:59.147Z,335
2016-12-29T08:04:00.351Z,340
2016-12-29T08:04:59.835Z,350
2016-12-29T08:05:59.792Z,365
2016-12-29T08:06:59.755Z,370
2016-12-29T08:07:59.727Z,375
2016-12-29T08:09:00.055Z,395
2016-12-29T08:09:59.632Z,395
2016-12-29T08:10:59.201Z,405
2016-12-29T08:11:59.936Z,410
2016-12-29T08:12:59.891Z,420
2016-12-29T08:13:59.472Z,430
2016-12-29T08:14:59.064Z,435
2016-12-29T08:15:59.396Z,440
2016-12-29T08:16:59.354Z,450
2016-12-29T08:17:58.928Z,450
2016-12-29T08:18:59.276Z,460
2016-12-29T08:19:59.238Z,465
2016-12-29T08:20:59.195Z,480
2016-12-29T08:21:59.157Z,490
2016-12-29T08:22:59.113Z,500
2016-12-29T08:23:59.088Z,500
2016-12-29T08:24:59.423Z,495
2016-12-29T08:25:59.389Z,490
2016-12-29T08:26:58.581Z,500
2016-12-29T08:27:58.932Z,500
2016-12-29T08:28:58.885Z,500
2016-12-29T08:29:58.849Z,510
2016-12-29T08:30:59.206Z,515
2016-12-29T08:31:58.785Z,520
2016-12-29T08:32:58.353Z,525
2016-12-29T08:33:58.712Z,530
2016-12-29T08:34:59.055Z,545
2016-12-29T08:35:58.250Z,550
2016-12-29T08:36:58.984Z,550
2016-12-29T08:37:58.953Z,550
2016-12-29T08:38:58.539Z,555
2016-12-29T08:39:57.717Z,555
2016-12-29T08:40:58.468Z,560
2016-12-29T08:41:58.417Z,565
2016-12-29T08:42:57.994Z,565
2016-12-29T08:43:58.353Z,570
2016-12-29T08:44:58.310Z,575
2016-12-29T08:45:58.279Z,580
2016-12-29T08:46:58.647Z,585
2016-12-29T08:47:58.199Z,595
2016-12-29T08:48:58.167Z,590
2016-12-29T08:49:58.537Z,595
2016-12-29T08:50:57.708Z,595
2016-12-29T08:51:58.066Z,595
2016-12-29T08:52:58.028Z,605
2016-12-29T08:53:58.387Z,610
2016-12-29T08:54:58.353Z,610
2016-12-29T08:55:57.542Z,615
2016-12-29T08:56:58.285Z,620
2016-12-29T08:57:57.473Z,630
2016-12-29T08:58:57.058Z,635
2016-12-29T08:59:58.183Z,640
2016-12-29T09:00:58.145Z,650
2016-12-29T09:01:57.349Z,660
2016-12-29T09:02:58.079Z,660
2016-12-29T09:03:58.049Z,665
2016-12-29T09:04:57.244Z,670
2016-12-29T09:05:56.831Z,675
2016-12-29T09:06:57.570Z,685
2016-12-29T09:07:57.924Z,695
2016-12-29T09:08:57.503Z,705
2016-12-29T09:09:57.468Z,710
2016-12-29T09:10:57.047Z,720
2016-12-29T09:11:57.398Z,730
2016-12-29T09:12:56.980Z,730
2016-12-29T09:13:57.718Z,735
2016-12-29T09:14:57.305Z,730
2016-12-29T09:15:57.268Z,730
2016-12-29T09:16:57.630Z,725
2016-12-29T09:17:57.211Z,735
2016-12-29T09:18:57.188Z,730
2016-12-29T09:19:57.145Z,735
2016-12-29T09:20:57.506Z,740
2016-12-29T09:21:57.473Z,745
2016-12-29T09:22:56.669Z,750
2016-12-29T09:23:57.406Z,750
2016-12-29T09:24:57.018Z,750
2016-12-29T09:25:56.954Z,755
2016-12-29T09:26:56.953Z,760
2016-12-29T09:27:56.895Z,770
2016-12-29T09:28:56.868Z,775
2016-12-29T09:29:57.217Z,780
2016-12-29T09:30:57.194Z,765
2016-12-29T09:31:56.783Z,770
2016-12-29T09:32:55.971Z,770
2016-12-29T09:33:57.104Z,770
2016-12-29T09:34:56.682Z,765
2016-12-29T09:35:56.649Z,765
2016-12-29T09:36:56.623Z,760
2016-12-29T09:37:56.615Z,765
2016-12-29T09:38:56.945Z,765
2016-12-29T09:39:56.535Z,770
2016-12-29T09:40:56.889Z,770
2016-12-29T09:41:56.470Z,775
2016-12-29T09:42:56.439Z,780
2016-12-29T09:43:56.796Z,790
2016-12-29T09:44:56.390Z,795
2016-12-29T09:45:56.351Z,810
2016-12-29T09:46:56.326Z,820
2016-12-29T09:47:55.913Z,825
2016-12-29T09:48:55.880Z,855
2016-12-29T09:49:56.237Z,870
2016-12-29T09:50:56.213Z,865
2016-12-29T09:51:56.557Z,860
2016-12-29T09:52:56.142Z,865
2016-12-29T09:53:56.503Z,855
2016-12-29T09:54:56.088Z,835
2016-12-29T09:55:55.676Z,820
2016-12-29T09:56:56.029Z,805
2016-12-29T09:57:56.382Z,805
2016-12-29T09:58:55.199Z,800
2016-12-29T09:59:56.327Z,795
2016-12-29T10:00:55.909Z,790
2016-12-29T10:01:55.502Z,785
2016-12-29T10:02:55.859Z,785
2016-12-29T10:03:55.438Z,785
2016-12-29T10:04:56.179Z,780
2016-12-29T10:05:56.155Z,780
2016-12-29T10:06:55.734Z,785
2016-12-29T10:07:56.094Z,785
2016-12-29T10:08:56.060Z,795
2016-12-29T10:09:56.040Z,800
2016-12-29T10:10:55.626Z,800
2016-12-29T10:11:55.208Z,810
2016-12-29T10:12:55.947Z,815
2016-12-29T10:13:55.531Z,815
2016-12-29T10:14:55.115Z,815
2016-12-29T10:15:55.861Z,825
2016-12-29T10:16:55.061Z,830
2016-12-29T10:17:55.799Z,870
2016-12-29T10:18:55.782Z,900
2016-12-29T10:19:55.743Z,945
2016-12-29T10:20:54.979Z,1005
2016-12-29T10:21:55.307Z,1110
2016-12-29T10:22:55.272Z,1290
2016-12-29T10:23:55.241Z,1405
2016-12-29T10:24:55.600Z,1410
2016-12-29T10:25:55.187Z,1430
2016-12-29T10:26:55.539Z,1445
2016-12-29T10:27:55.133Z,1415
2016-12-29T10:28:55.487Z,1390
2016-12-29T10:29:55.452Z,1365
2016-12-29T10:30:55.034Z,1360
2016-12-29T10:31:55.008Z,1320
2016-12-29T10:32:54.988Z,1325
2016-12-29T10:33:55.343Z,1300
2016-12-29T10:34:54.929Z,1275
2016-12-29T10:35:55.277Z,1285
2016-12-29T10:36:55.256Z,1235
2016-12-29T10:37:54.826Z,985
2016-12-29T10:38:55.194Z,720
2016-12-29T10:39:54.771Z,665
2016-12-29T10:40:55.126Z,645
2016-12-29T10:41:55.100Z,630
2016-12-29T10:42:54.686Z,630
2016-12-29T10:43:54.269Z,630
2016-12-29T10:44:54.622Z,630
2016-12-29T10:45:55.006Z,620
2016-12-29T10:46:54.181Z,620
2016-12-29T10:47:54.533Z,615
2016-12-29T10:48:54.889Z,610
2016-12-29T10:49:54.863Z,605
2016-12-29T10:50:54.448Z,605
2016-12-29T10:51:54.423Z,605
2016-12-29T10:52:54.775Z,610
2016-12-29T10:53:54.357Z,615
2016-12-29T10:54:54.713Z,615
2016-12-29T10:55:53.932Z,615
2016-12-29T10:56:54.272Z,615
2016-12-29T10:57:54.238Z,615
2016-12-29T10:58:53.827Z,615
2016-12-29T10:59:53.804Z,620
2016-12-29T11:00:54.541Z,620
2016-12-29T11:01:54.134Z,630
2016-12-29T11:02:54.482Z,670
2016-12-29T11:03:54.065Z,945
2016-12-29T11:04:54.039Z,1195
2016-12-29T11:05:54.006Z,1195
2016-12-29T11:06:53.589Z,1255
2016-12-29T11:07:53.178Z,1305
2016-12-29T11:08:53.535Z,1320
2016-12-29T11:09:53.903Z,1250
2016-12-29T11:10:53.466Z,1255
2016-12-29T11:11:54.215Z,1310
2016-12-29T11:12:54.180Z,1285
2016-12-29T11:13:53.767Z,1295
2016-12-29T11:14:54.138Z,1340
2016-12-29T11:15:53.711Z,1290
2016-12-29T11:16:54.061Z,1255
2016-12-29T11:17:54.036Z,940
2016-12-29T11:18:53.253Z,565
2016-12-29T11:19:53.598Z,500
2016-12-29T11:20:53.943Z,490
2016-12-29T11:21:53.536Z,490
2016-12-29T11:22:53.113Z,485
2016-12-29T11:23:53.089Z,485
2016-12-29T11:24:53.433Z,485
2016-12-29T11:25:53.403Z,485
2016-12-29T11:26:53.757Z,475
2016-12-29T11:27:53.727Z,465
2016-12-29T11:28:53.307Z,450
2016-12-29T11:29:52.509Z,435
2016-12-29T11:30:52.865Z,410
2016-12-29T11:31:53.602Z,395
2016-12-29T11:32:53.568Z,390
2016-12-29T11:33:53.154Z,450
2016-12-29T11:34:53.509Z,525
2016-12-29T11:35:53.090Z,495
2016-12-29T11:36:52.688Z,805
2016-12-29T11:37:53.068Z,1170
2016-12-29T11:38:52.996Z,1230
2016-12-29T11:39:53.346Z,920
2016-12-29T11:40:52.930Z,515
2016-12-29T11:41:53.314Z,495
2016-12-29T11:42:52.479Z,380
2016-12-29T11:43:52.089Z,305
2016-12-29T11:44:53.197Z,290
2016-12-29T11:45:53.147Z,275
2016-12-29T11:46:52.347Z,260
2016-12-29T11:47:53.083Z,250
2016-12-29T11:48:53.045Z,240
2016-12-29T11:49:52.272Z,235
2016-12-29T11:50:52.600Z,225
2016-12-29T11:51:52.182Z,225
2016-12-29T11:52:52.530Z,220
2016-12-29T11:53:51.756Z,215
2016-12-29T11:54:52.469Z,215
2016-12-29T11:55:52.818Z,210
2016-12-29T11:56:52.778Z,210
2016-12-29T11:57:52.745Z,210
2016-12-29T11:58:52.712Z,205
2016-12-29T11:59:52.285Z,200
2016-12-29T12:00:52.248Z,200
2016-12-29T12:01:52.602Z,195
2016-12-29T12:02:52.599Z,195
2016-12-29T12:03:51.770Z,195
2016-12-29T12:04:52.496Z,190
2016-12-29T12:05:52.073Z,190
2016-12-29T12:06:52.425Z,185
2016-12-29T12:07:52.000Z,185
2016-12-29T12:08:51.577Z,185
2016-12-29T12:09:52.311Z,180
2016-12-29T12:10:52.285Z,180
2016-12-29T12:11:52.238Z,175
2016-12-29T12:12:52.201Z,175
2016-12-29T12:13:52.163Z,170
2016-12-29T12:14:52.125Z,165
2016-12-29T12:15:52.092Z,165
2016-12-29T12:16:51.281Z,160
2016-12-29T12:17:51.631Z,160
2016-12-29T12:18:51.598Z,155
2016-12-29T12:19:51.553Z,150
2016-12-29T12:20:51.523Z,150
2016-12-29T12:21:51.871Z,150
2016-12-29T12:22:51.831Z,150
2016-12-29T12:23:51.791Z,150
2016-12-29T12:24:51.757Z,145
2016-12-29T12:25:51.750Z,145
2016-12-29T12:26:51.684Z,145
2016-12-29T12:27:51.263Z,145
2016-12-29T12:28:50.835Z,145
2016-12-29T12:29:51.178Z,145
2016-12-29T12:30:51.145Z,140
2016-12-29T12:31:51.105Z,140
2016-12-29T12:32:50.682Z,140
2016-12-29T12:33:51.026Z,140
2016-12-29T12:34:50.602Z,140
2016-12-29T12:35:51.346Z,135
2016-12-29T12:36:51.300Z,135
2016-12-29T12:37:50.880Z,135
2016-12-29T12:38:50.449Z,135
2016-12-29T12:39:50.436Z,135
2016-12-29T12:40:50.759Z,130
2016-12-29T12:41:50.725Z,130
2016-12-29T12:42:50.719Z,130
2016-12-29T12:43:51.067Z,130
2016-12-29T12:44:50.255Z,130
2016-12-29T12:45:50.944Z,130
2016-12-29T12:46:50.906Z,130
2016-12-29T12:47:50.483Z,125
2016-12-29T12:48:50.825Z,125
2016-12-29T12:49:50.026Z,125
2016-12-29T12:50:49.982Z,125
2016-12-29T12:51:50.718Z,125
2016-12-29T12:52:50.285Z,125
2016-12-29T12:53:49.092Z,125
2016-12-29T12:54:50.605Z,125
2016-12-29T12:55:50.172Z,125
2016-12-29T12:56:49.744Z,130
2016-12-29T12:57:50.471Z,125
2016-12-29T12:58:50.047Z,120
2016-12-29T12:59:49.236Z,120
2016-12-29T13:00:49.200Z,120
2016-12-29T13:01:50.315Z,120
2016-12-29T13:02:50.275Z,120
2016-12-29T13:03:49.848Z,120
2016-12-29T13:04:49.847Z,120
2016-12-29T13:05:49.419Z,120
2016-12-29T13:06:50.112Z,120
2016-12-29T13:07:49.300Z,115
2016-12-29T13:08:50.031Z,115
2016-12-29T13:09:49.618Z,115
2016-12-29T13:10:49.956Z,115
2016-12-29T13:11:49.524Z,115
2016-12-29T13:12:49.871Z,115
2016-12-29T13:13:49.448Z,115
2016-12-29T13:14:49.789Z,115
2016-12-29T13:15:49.369Z,115
2016-12-29T13:16:49.335Z,110
2016-12-29T13:17:49.288Z,110
2016-12-29T13:18:49.248Z,110
2016-12-29T13:19:48.826Z,110
2016-12-29T13:20:49.557Z,110
2016-12-29T13:21:49.516Z,110
2016-12-29T13:22:49.098Z,110
2016-12-29T13:23:49.042Z,110
2016-12-29T13:24:48.997Z,110
2016-12-29T13:25:48.959Z,110
2016-12-29T13:26:48.919Z,105
2016-12-29T13:27:48.884Z,105
2016-12-29T13:28:48.873Z,105
2016-12-29T13:29:49.190Z,105
2016-12-29T13:30:48.773Z,105
2016-12-29T13:31:49.116Z,105
2016-12-29T13:32:48.692Z,105
2016-12-29T13:33:47.883Z,100
2016-12-29T13:34:48.610Z,100
2016-12-29T13:35:48.563Z,100
2016-12-29T13:36:48.914Z,100
2016-12-29T13:37:48.867Z,100
2016-12-29T13:38:48.846Z,100
2016-12-29T13:39:48.784Z,100
2016-12-29T13:40:48.759Z,100
2016-12-29T13:41:48.321Z,100
2016-12-29T13:42:47.896Z,95
2016-12-29T13:43:48.628Z,95
2016-12-29T13:44:48.201Z,95
2016-12-29T13:45:48.553Z,95
2016-12-29T13:46:48.116Z,95
2016-12-29T13:47:48.095Z,95
2016-12-29T13:48:48.424Z,95
2016-12-29T13:49:47.619Z,95
2016-12-29T13:50:47.572Z,95
2016-12-29T13:51:48.307Z,90
2016-12-29T13:52:48.262Z,90
2016-12-29T13:53:48.227Z,90
2016-12-29T13:54:47.799Z,90
2016-12-29T13:55:47.760Z,90
2016-12-29T13:56:48.099Z,90
2016-12-29T13:57:47.677Z,90
2016-12-29T13:58:47.644Z,90
2016-12-29T13:59:47.206Z,85
2016-12-29T14:00:47.566Z,85
2016-12-29T14:01:47.515Z,85
2016-12-29T14:02:47.094Z,85
2016-12-29T14:03:47.815Z,85
2016-12-29T14:04:47.809Z,85
2016-12-29T14:05:46.590Z,85
2016-12-29T14:06:47.704Z,85
2016-12-29T14:07:46.970Z,85
2016-12-29T14:08:46.845Z,85
2016-12-29T14:09:47.579Z,85
2016-12-29T14:10:47.148Z,85
2016-12-29T14:11:47.492Z,85
2016-12-29T14:12:47.065Z,85
2016-12-29T14:13:47.438Z,85
2016-12-29T14:14:46.983Z,80
2016-12-29T14:15:46.950Z,80